createdAt,value
2023-02-09T00:00:51.745Z,-0.2
2023-02-09T00:01:47.223Z,-0.2
2023-02-09T00:02:47.196Z,-0.2
2023-02-09T00:03:51.940Z,-0.3
2023-02-09T00:04:47.366Z,-0.3
2023-02-09T00:05:47.414Z,-0.4
2023-02-09T00:06:52.560Z,-0.4
2023-02-09T00:07:47.513Z,-0.2
2023-02-09T00:08:47.599Z,-0.2
2023-02-09T00:09:51.555Z,-0.2
2023-02-09T00:10:47.833Z,-0.2
2023-02-09T00:11:47.838Z,-0.2
2023-02-09T00:12:50.846Z,-0.3
2023-02-09T00:13:47.857Z,-0.3
2023-02-09T00:14:47.948Z,-0.3
2023-02-09T00:15:51.512Z,-0.5
2023-02-09T00:16:48.066Z,-0.4
2023-02-09T00:17:48.039Z,-0.5
2023-02-09T00:18:51.147Z,-0.5
2023-02-09T00:19:48.228Z,-0.4
2023-02-09T00:20:48.209Z,-0.3
2023-02-09T00:21:51.255Z,-0.2
2023-02-09T00:22:48.302Z,-0.3
2023-02-09T00:23:48.335Z,-0.3
2023-02-09T00:24:51.366Z,-0.3
2023-02-09T00:25:48.437Z,-0.2
2023-02-09T00:26:48.481Z,-0.3
2023-02-09T00:27:52.473Z,-0.4
2023-02-09T00:28:48.580Z,-0.5
2023-02-09T00:29:48.647Z,-0.3
2023-02-09T00:30:51.404Z,-0.5
2023-02-09T00:31:48.834Z,-0.5
2023-02-09T00:32:48.843Z,-0.4
2023-02-09T00:33:51.472Z,-0.4
2023-02-09T00:34:48.948Z,-0.6
2023-02-09T00:35:48.976Z,-0.5
2023-02-09T00:36:55.055Z,-0.5
2023-02-09T00:37:49.092Z,-0.5
2023-02-09T00:38:49.153Z,-0.5
2023-02-09T00:39:52.770Z,-0.5
2023-02-09T00:40:49.303Z,-0.4
2023-02-09T00:41:49.350Z,-0.5
2023-02-09T00:42:53.396Z,-0.4
2023-02-09T00:43:49.475Z,-0.4
2023-02-09T00:44:49.555Z,-0.5
2023-02-09T00:45:53.163Z,-0.4
2023-02-09T00:46:49.680Z,-0.4
2023-02-09T00:47:49.766Z,-0.5
2023-02-09T00:48:56.994Z,-0.6
2023-02-09T00:49:49.836Z,-0.6
2023-02-09T00:50:49.912Z,-0.6
2023-02-09T00:51:53.519Z,-0.6
2023-02-09T00:52:50.029Z,-0.5
2023-02-09T00:53:50.096Z,-0.5
2023-02-09T00:54:52.890Z,-0.5
2023-02-09T00:55:50.207Z,-0.4
2023-02-09T00:56:50.256Z,-0.5
2023-02-09T00:57:54.348Z,-0.6
2023-02-09T00:58:50.391Z,-0.7
2023-02-09T00:59:50.524Z,-0.7
2023-02-09T01:00:53.721Z,-0.6
2023-02-09T01:01:50.584Z,-0.6
2023-02-09T01:02:50.633Z,-0.5
2023-02-09T01:03:54.661Z,-0.5
2023-02-09T01:04:50.777Z,-0.5
2023-02-09T01:05:50.830Z,-0.4
2023-02-09T01:06:53.904Z,-0.6
2023-02-09T01:07:50.935Z,-0.6
2023-02-09T01:08:51.056Z,-0.6
2023-02-09T01:09:53.497Z,-0.6
2023-02-09T01:10:51.118Z,-0.6
2023-02-09T01:11:51.185Z,-0.6
2023-02-09T01:12:53.842Z,-0.6
2023-02-09T01:13:51.301Z,-0.6
2023-02-09T01:14:51.391Z,-0.9
2023-02-09T01:15:53.316Z,-0.8
2023-02-09T01:16:51.546Z,-0.8
2023-02-09T01:17:51.565Z,-0.7
2023-02-09T01:18:57.524Z,-0.7
2023-02-09T01:19:51.691Z,-0.9
2023-02-09T01:20:51.760Z,-0.8
2023-02-09T01:21:55.188Z,-0.7
2023-02-09T01:22:51.864Z,-0.7
2023-02-09T01:23:51.906Z,-0.8
2023-02-09T01:24:54.531Z,-0.8
2023-02-09T01:25:52.012Z,-0.6
2023-02-09T01:26:52.064Z,-0.6
2023-02-09T01:27:54.172Z,-0.7
2023-02-09T01:28:52.131Z,-0.6
2023-02-09T01:29:52.165Z,-0.6
2023-02-09T01:30:54.015Z,-0.7
2023-02-09T01:31:52.329Z,-0.8
2023-02-09T01:32:52.288Z,-0.8
2023-02-09T01:33:54.432Z,-0.8
2023-02-09T01:34:52.411Z,-0.9
2023-02-09T01:35:52.457Z,-0.9
2023-02-09T01:36:55.322Z,-1
2023-02-09T01:37:52.568Z,-1
2023-02-09T01:38:52.622Z,-0.9
2023-02-09T01:39:53.602Z,-0.8
2023-02-09T01:40:52.703Z,-0.7
2023-02-09T01:41:52.755Z,-0.6
2023-02-09T01:42:53.485Z,-0.6
2023-02-09T01:43:57.972Z,-0.7
2023-02-09T01:44:52.989Z,-0.7
2023-02-09T01:45:54.248Z,-0.7
2023-02-09T01:46:53.098Z,-0.8
2023-02-09T01:47:53.158Z,-0.8
2023-02-09T01:48:56.076Z,-0.9
2023-02-09T01:49:53.268Z,-0.9
2023-02-09T01:50:53.379Z,-0.9
2023-02-09T01:51:54.131Z,-0.9
2023-02-09T01:52:53.514Z,-0.8
2023-02-09T01:53:53.554Z,-0.8
2023-02-09T01:54:56.313Z,-0.9
2023-02-09T01:55:53.660Z,-0.9
2023-02-09T01:57:05.035Z,-0.9
2023-02-09T01:57:58.788Z,-1
2023-02-09T01:58:53.850Z,-1
2023-02-09T01:59:53.923Z,-0.9
2023-02-09T02:01:00.925Z,-0.8
2023-02-09T02:01:54.044Z,-0.8
2023-02-09T02:02:54.213Z,-1
2023-02-09T02:03:57.608Z,-1.1
2023-02-09T02:04:54.214Z,-1
2023-02-09T02:05:54.292Z,-1
2023-02-09T02:06:56.631Z,-1
2023-02-09T02:07:54.407Z,-1
2023-02-09T02:08:54.488Z,-0.9
2023-02-09T02:09:56.988Z,-0.9
2023-02-09T02:10:54.569Z,-0.8
2023-02-09T02:11:54.643Z,-0.8
2023-02-09T02:12:57.601Z,-0.7
2023-02-09T02:13:54.765Z,-0.7
2023-02-09T02:14:54.846Z,-0.8
2023-02-09T02:15:57.361Z,-0.8
2023-02-09T02:16:54.919Z,-0.8
2023-02-09T02:17:55.000Z,-0.8
2023-02-09T02:18:57.258Z,-0.8
2023-02-09T02:19:55.128Z,-0.9
2023-02-09T02:20:55.160Z,-0.8
2023-02-09T02:21:59.305Z,-0.8
2023-02-09T02:22:55.271Z,-0.8
2023-02-09T02:23:55.321Z,-0.7
2023-02-09T02:24:58.305Z,-0.9
2023-02-09T02:25:55.415Z,-0.9
2023-02-09T02:26:55.479Z,-0.8
2023-02-09T02:27:58.321Z,-0.8
2023-02-09T02:28:55.618Z,-0.6
2023-02-09T02:29:55.666Z,-0.7
2023-02-09T02:30:55.819Z,-0.6
2023-02-09T02:31:55.800Z,-0.6
2023-02-09T02:32:55.802Z,-0.8
2023-02-09T02:33:58.078Z,-0.9
2023-02-09T02:34:55.888Z,-0.8
2023-02-09T02:35:55.917Z,-0.7
2023-02-09T02:37:00.177Z,-0.7
2023-02-09T02:37:56.100Z,-0.8
2023-02-09T02:38:56.070Z,-0.8
2023-02-09T02:39:58.463Z,-0.8
2023-02-09T02:40:56.210Z,-0.8
2023-02-09T02:41:56.214Z,-0.8
2023-02-09T02:43:00.181Z,-0.7
2023-02-09T02:43:56.319Z,-0.7
2023-02-09T02:44:56.370Z,-0.8
2023-02-09T02:45:57.882Z,-1
2023-02-09T02:46:56.437Z,-1.1
2023-02-09T02:47:56.453Z,-1.2
2023-02-09T02:48:58.781Z,-1.2
2023-02-09T02:49:56.555Z,-1.2
2023-02-09T02:50:56.636Z,-0.9
2023-02-09T02:52:00.601Z,-0.9
2023-02-09T02:52:56.716Z,-1
2023-02-09T02:53:56.776Z,-1.1
2023-02-09T02:54:59.442Z,-1
2023-02-09T02:55:56.881Z,-0.9
2023-02-09T02:57:03.559Z,-1
2023-02-09T02:58:03.243Z,-1
2023-02-09T02:58:57.017Z,-1.1
2023-02-09T02:59:57.067Z,-1
2023-02-09T03:01:03.129Z,-1
2023-02-09T03:01:57.244Z,-1.1
2023-02-09T03:02:57.218Z,-1.2
2023-02-09T03:04:04.151Z,-1.1
2023-02-09T03:04:57.365Z,-1.1
2023-02-09T03:05:57.394Z,-1.2
2023-02-09T03:07:00.644Z,-1.4
2023-02-09T03:07:57.601Z,-1.5
2023-02-09T03:08:57.591Z,-1.5
2023-02-09T03:10:02.027Z,-1.5
2023-02-09T03:10:57.736Z,-1.4
2023-02-09T03:11:57.772Z,-1.5
2023-02-09T03:13:01.407Z,-1.5
2023-02-09T03:13:57.893Z,-1.6
2023-02-09T03:14:57.981Z,-1.6
2023-02-09T03:16:09.010Z,-1.6
2023-02-09T03:17:00.844Z,-1.5
2023-02-09T03:17:58.150Z,-1.6
2023-02-09T03:19:08.269Z,-1.6
2023-02-09T03:19:58.253Z,-1.7
2023-02-09T03:20:58.326Z,-1.5
2023-02-09T03:22:07.540Z,-1.4
2023-02-09T03:22:58.464Z,-1.3
2023-02-09T03:23:58.493Z,-1.3
2023-02-09T03:25:07.963Z,-1.3
2023-02-09T03:25:58.627Z,-1.2
2023-02-09T03:26:58.681Z,-1.2
2023-02-09T03:28:08.462Z,-1.3
2023-02-09T03:28:58.814Z,-1.2
2023-02-09T03:29:58.887Z,-1.2
2023-02-09T03:31:08.322Z,-1.2
2023-02-09T03:31:59.073Z,-1.3
2023-02-09T03:32:59.040Z,-1.3
2023-02-09T03:34:08.624Z,-1.2
2023-02-09T03:34:59.165Z,-1.3
2023-02-09T03:35:59.236Z,-1.2
2023-02-09T03:37:11.568Z,-1.3
2023-02-09T03:37:59.339Z,-1.3
2023-02-09T03:38:59.414Z,-1.3
2023-02-09T03:40:10.205Z,-1.3
2023-02-09T03:40:59.575Z,-1.4
2023-02-09T03:41:59.616Z,-1.4
2023-02-09T03:43:10.828Z,-1.5
2023-02-09T03:43:59.702Z,-1.6
2023-02-09T03:44:59.759Z,-1.6
2023-02-09T03:46:08.765Z,-1.6
2023-02-09T03:46:59.918Z,-1.7
2023-02-09T03:47:59.890Z,-1.6
2023-02-09T03:49:11.937Z,-1.6
2023-02-09T03:50:00.010Z,-1.7
2023-02-09T03:51:00.043Z,-1.7
2023-02-09T03:52:09.666Z,-1.9
2023-02-09T03:53:00.131Z,-2.1
2023-02-09T03:54:00.180Z,-2.1
2023-02-09T03:55:12.381Z,-2.1
2023-02-09T03:56:00.311Z,-2.1
2023-02-09T03:57:03.449Z,-2.1
2023-02-09T03:58:11.104Z,-2
2023-02-09T03:59:00.424Z,-1.9
2023-02-09T04:00:00.508Z,-1.8
2023-02-09T04:01:10.176Z,-1.8
2023-02-09T04:02:00.559Z,-2
2023-02-09T04:03:00.592Z,-2.1
2023-02-09T04:04:11.617Z,-1.9
2023-02-09T04:05:00.707Z,-1.8
2023-02-09T04:06:00.776Z,-1.8
2023-02-09T04:07:14.010Z,-1.7
2023-02-09T04:08:00.868Z,-1.7
2023-02-09T04:09:00.950Z,-1.8
2023-02-09T04:10:10.676Z,-1.6
2023-02-09T04:11:01.098Z,-1.6
2023-02-09T04:12:01.151Z,-1.6
2023-02-09T04:13:10.376Z,-1.5
2023-02-09T04:14:01.237Z,-1.6
2023-02-09T04:15:01.341Z,-1.5
2023-02-09T04:16:10.672Z,-1.6
2023-02-09T04:17:01.489Z,-1.6
2023-02-09T04:18:01.489Z,-1.7
2023-02-09T04:19:14.524Z,-1.8
2023-02-09T04:20:01.634Z,-1.8
2023-02-09T04:21:01.659Z,-1.8
2023-02-09T04:22:12.924Z,-1.9
2023-02-09T04:23:01.806Z,-1.9
2023-02-09T04:24:01.849Z,-1.8
2023-02-09T04:25:14.336Z,-1.8
2023-02-09T04:26:01.983Z,-1.8
2023-02-09T04:27:02.055Z,-1.7
2023-02-09T04:28:13.855Z,-1.7
2023-02-09T04:29:02.163Z,-1.6
2023-02-09T04:30:02.228Z,-1.7
2023-02-09T04:31:27.584Z,-1.8
2023-02-09T04:32:02.354Z,-1.7
2023-02-09T04:33:02.406Z,-1.7
2023-02-09T04:34:02.488Z,-1.7
2023-02-09T04:35:02.541Z,-1.8
2023-02-09T04:36:02.634Z,-1.8
2023-02-09T04:37:02.657Z,-1.8
2023-02-09T04:38:02.727Z,-1.8
2023-02-09T04:39:02.796Z,-1.7
2023-02-09T04:40:02.885Z,-1.7
2023-02-09T04:41:02.930Z,-1.7
2023-02-09T04:42:02.991Z,-1.7
2023-02-09T04:43:03.041Z,-1.9
2023-02-09T04:44:03.114Z,-1.9
2023-02-09T04:45:03.162Z,-1.9
2023-02-09T04:46:03.294Z,-1.8
2023-02-09T04:47:03.316Z,-1.8
2023-02-09T04:48:03.352Z,-1.8
2023-02-09T04:49:03.412Z,-1.8
2023-02-09T04:50:03.450Z,-1.9
2023-02-09T04:51:03.532Z,-2.1
2023-02-09T04:52:03.607Z,-2
2023-02-09T04:53:03.664Z,-1.9
2023-02-09T04:54:03.727Z,-1.8
2023-02-09T04:55:03.796Z,-2
2023-02-09T04:56:03.846Z,-2
2023-02-09T04:57:03.918Z,-2
2023-02-09T04:58:04.022Z,-1.9
2023-02-09T04:59:04.021Z,-1.9
2023-02-09T05:00:04.074Z,-2.1
2023-02-09T05:01:04.207Z,-2.1
2023-02-09T05:02:04.146Z,-2
2023-02-09T05:03:04.180Z,-2.2
2023-02-09T05:04:04.229Z,-2.3
2023-02-09T05:05:04.260Z,-2.2
2023-02-09T05:06:04.329Z,-2.1
2023-02-09T05:07:04.400Z,-2.2
2023-02-09T05:08:04.392Z,-2.4
2023-02-09T05:09:04.445Z,-2.2
2023-02-09T05:10:04.500Z,-2.1
2023-02-09T05:11:04.561Z,-2
2023-02-09T05:12:04.591Z,-2.1
2023-02-09T05:13:04.642Z,-2.2
2023-02-09T05:14:04.680Z,-2.4
2023-02-09T05:15:04.739Z,-2.3
2023-02-09T05:16:04.793Z,-2.2
2023-02-09T05:17:04.883Z,-2.3
2023-02-09T05:18:04.929Z,-2.2
2023-02-09T05:19:05.012Z,-2.2
2023-02-09T05:20:05.061Z,-2.3
2023-02-09T05:21:05.071Z,-2.1
2023-02-09T05:22:05.224Z,-2.2
2023-02-09T05:23:05.236Z,-2.2
2023-02-09T05:24:05.232Z,-2.1
2023-02-09T05:25:05.321Z,-2.1
2023-02-09T05:26:05.365Z,-2.2
2023-02-09T05:27:05.428Z,-2.2
2023-02-09T05:28:05.516Z,-2.5
2023-02-09T05:29:05.524Z,-2.6
2023-02-09T05:30:05.599Z,-2.5
2023-02-09T05:31:05.712Z,-2.6
2023-02-09T05:32:05.853Z,-2.5
2023-02-09T05:33:05.778Z,-2.3
2023-02-09T05:34:05.838Z,-2.5
2023-02-09T05:35:07.038Z,-2.5
2023-02-09T05:36:05.962Z,-2.5
2023-02-09T05:37:06.048Z,-2.2
2023-02-09T05:38:06.085Z,-2.4
2023-02-09T05:39:06.148Z,-2.5
2023-02-09T05:40:06.182Z,-2.6
2023-02-09T05:41:06.253Z,-2.7
2023-02-09T05:42:06.352Z,-2.6
2023-02-09T05:43:06.358Z,-2.5
2023-02-09T05:44:06.416Z,-2.5
2023-02-09T05:45:06.483Z,-2.5
2023-02-09T05:46:08.238Z,-2.6
2023-02-09T05:47:06.580Z,-2.6
2023-02-09T05:48:06.671Z,-2.6
2023-02-09T05:49:06.695Z,-2.5
2023-02-09T05:50:22.086Z,-2.7
2023-02-09T05:51:06.819Z,-2.7
2023-02-09T05:52:06.878Z,-2.6
2023-02-09T05:53:06.899Z,-2.6
2023-02-09T05:54:06.980Z,-2.5
2023-02-09T05:55:07.028Z,-2.5
2023-02-09T05:56:24.882Z,-2.4
2023-02-09T05:57:07.121Z,-2.4
2023-02-09T05:58:07.212Z,-2.5
2023-02-09T05:59:07.220Z,-2.5
2023-02-09T06:00:07.304Z,-2.5
2023-02-09T06:01:07.381Z,-2.5
2023-02-09T06:02:33.895Z,-2.5
2023-02-09T06:03:07.516Z,-2.6
2023-02-09T06:04:07.537Z,-2.7
2023-02-09T06:05:07.585Z,-2.5
2023-02-09T06:06:07.618Z,-2.6
2023-02-09T06:07:07.648Z,-2.6
2023-02-09T06:08:21.951Z,-2.5
2023-02-09T06:09:07.730Z,-2.5
2023-02-09T06:10:07.806Z,-2.6
2023-02-09T06:11:07.878Z,-2.5
2023-02-09T06:12:07.950Z,-2.5
2023-02-09T06:13:08.026Z,-2.4
2023-02-09T06:14:25.029Z,-2.6
2023-02-09T06:15:08.102Z,-2.6
2023-02-09T06:16:08.213Z,-2.6
2023-02-09T06:17:08.211Z,-2.5
2023-02-09T06:18:08.198Z,-2.5
2023-02-09T06:19:08.189Z,-2.4
2023-02-09T06:20:22.894Z,-2.5
2023-02-09T06:21:08.273Z,-2.5
2023-02-09T06:22:08.342Z,-2.4
2023-02-09T06:23:08.398Z,-2.3
2023-02-09T06:24:08.418Z,-2.3
2023-02-09T06:25:08.475Z,-2.3
2023-02-09T06:26:25.714Z,-2.3
2023-02-09T06:27:08.532Z,-2.2
2023-02-09T06:28:08.651Z,-2.2
2023-02-09T06:29:08.637Z,-2.3
2023-02-09T06:30:08.717Z,-2.4
2023-02-09T06:31:08.850Z,-2.4
2023-02-09T06:32:09.840Z,-2.2
2023-02-09T06:33:08.891Z,-2.2
2023-02-09T06:34:08.962Z,-2.3
2023-02-09T06:35:09.515Z,-2.4
2023-02-09T06:36:09.100Z,-2.4
2023-02-09T06:37:09.146Z,-2.3
2023-02-09T06:38:38.395Z,-2.4
2023-02-09T06:39:09.250Z,-2.3
2023-02-09T06:40:09.298Z,-2.3
2023-02-09T06:41:09.426Z,-2.4
2023-02-09T06:42:09.454Z,-2.3
2023-02-09T06:43:09.491Z,-2.4
2023-02-09T06:44:36.737Z,-2.2
2023-02-09T06:45:09.648Z,-2.3
2023-02-09T06:46:09.735Z,-2.3
2023-02-09T06:47:09.781Z,-2.3
2023-02-09T06:48:09.822Z,-2.4
2023-02-09T06:49:09.877Z,-2.5
2023-02-09T06:50:34.726Z,-2.5
2023-02-09T06:51:10.011Z,-2.4
2023-02-09T06:52:11.131Z,-2.4
2023-02-09T06:53:11.183Z,-2.4
2023-02-09T06:54:10.182Z,-2.3
2023-02-09T06:55:10.220Z,-2.5
2023-02-09T06:56:35.956Z,-2.6
2023-02-09T06:57:10.372Z,-2.5
2023-02-09T06:58:10.435Z,-2.7
2023-02-09T06:59:10.476Z,-2.7
2023-02-09T07:00:10.555Z,-2.5
2023-02-09T07:01:10.641Z,-2.5
2023-02-09T07:02:39.826Z,-2.6
2023-02-09T07:03:13.144Z,-2.7
2023-02-09T07:04:10.798Z,-2.8
2023-02-09T07:05:10.889Z,-2.8
2023-02-09T07:06:10.912Z,-2.8
2023-02-09T07:07:17.348Z,-2.8
2023-02-09T07:08:37.763Z,-2.8
2023-02-09T07:09:11.102Z,-2.9
2023-02-09T07:10:15.706Z,-2.8
2023-02-09T07:11:11.218Z,-2.8
2023-02-09T07:12:17.027Z,-2.6
2023-02-09T07:13:11.375Z,-2.5
2023-02-09T07:14:36.764Z,-2.6
2023-02-09T07:15:11.536Z,-2.5
2023-02-09T07:16:23.799Z,-2.4
2023-02-09T07:17:11.602Z,-2.4
2023-02-09T07:18:22.397Z,-2.4
2023-02-09T07:19:11.746Z,-2.4
2023-02-09T07:20:33.748Z,-2.3
2023-02-09T07:21:11.896Z,-2.2
2023-02-09T07:22:35.412Z,-2.1
2023-02-09T07:23:12.001Z,-1.8
2023-02-09T07:24:35.897Z,-1.8
2023-02-09T07:25:12.072Z,-1.8
2023-02-09T07:26:34.154Z,-2
2023-02-09T07:27:12.183Z,-1.9
2023-02-09T07:28:36.110Z,-1.9
2023-02-09T07:29:12.984Z,-1.9
2023-02-09T07:30:34.749Z,-1.9
2023-02-09T07:31:12.393Z,-1.8
2023-02-09T07:32:16.802Z,-1.6
2023-02-09T07:33:12.458Z,-1.5
2023-02-09T07:34:12.494Z,-1.5
2023-02-09T07:35:15.658Z,-1.5
2023-02-09T07:36:12.633Z,-1.3
2023-02-09T07:37:12.646Z,-1.2
2023-02-09T07:38:17.833Z,-1.2
2023-02-09T07:39:12.725Z,-1
2023-02-09T07:40:12.798Z,-1.1
2023-02-09T07:41:16.907Z,-1.2
2023-02-09T07:42:12.924Z,-1
2023-02-09T07:43:12.955Z,-1.2
2023-02-09T07:44:14.874Z,-1.3
2023-02-09T07:45:13.087Z,-1.3
2023-02-09T07:46:13.214Z,-1.2
2023-02-09T07:47:29.333Z,-1.2
2023-02-09T07:48:13.312Z,-1.1
2023-02-09T07:49:13.388Z,-1.1
2023-02-09T07:50:14.698Z,-1
2023-02-09T07:51:13.526Z,-1
2023-02-09T07:52:13.581Z,-1
2023-02-09T07:53:15.954Z,-0.9
2023-02-09T07:54:13.693Z,-0.5
2023-02-09T07:55:13.744Z,-0.4
2023-02-09T07:56:17.812Z,-0.5
2023-02-09T07:57:13.910Z,-0.4
2023-02-09T07:58:13.936Z,-0.2
2023-02-09T07:59:18.681Z,-0.1
2023-02-09T08:00:14.077Z,0
2023-02-09T08:01:14.137Z,-0.3
2023-02-09T08:02:18.080Z,-0.2
2023-02-09T08:03:14.264Z,-0.4
2023-02-09T08:04:14.288Z,-0.4
2023-02-09T08:05:17.707Z,0.1
2023-02-09T08:06:14.420Z,0
2023-02-09T08:07:14.509Z,0.2
2023-02-09T08:08:19.595Z,0.4
2023-02-09T08:09:14.620Z,0.2
2023-02-09T08:10:15.127Z,0
2023-02-09T08:11:18.333Z,-0.1
2023-02-09T08:12:14.996Z,-0.1
2023-02-09T08:13:14.896Z,-0.4
2023-02-09T08:14:19.814Z,-0.6
2023-02-09T08:15:15.023Z,-0.6
2023-02-09T08:16:15.166Z,-0.5
2023-02-09T08:17:20.392Z,-0.5
2023-02-09T08:18:15.240Z,-0.4
2023-02-09T08:19:15.293Z,-0.1
2023-02-09T08:20:22.223Z,0.2
2023-02-09T08:21:15.411Z,0.4
2023-02-09T08:22:15.499Z,0
2023-02-09T08:23:23.742Z,-0.2
2023-02-09T08:24:15.620Z,-0.1
2023-02-09T08:25:15.769Z,0.1
2023-02-09T08:26:22.920Z,0
2023-02-09T08:27:15.797Z,0.2
2023-02-09T08:28:15.908Z,0
2023-02-09T08:29:22.127Z,0.3
2023-02-09T08:30:16.014Z,0.3
2023-02-09T08:31:16.126Z,0
2023-02-09T08:32:23.612Z,0.2
2023-02-09T08:33:16.188Z,0.5
2023-02-09T08:34:16.216Z,0.4
2023-02-09T08:35:30.290Z,0.4
2023-02-09T08:36:16.293Z,0.3
2023-02-09T08:37:16.324Z,0.3
2023-02-09T08:38:26.419Z,0.5
2023-02-09T08:39:16.706Z,0.4
2023-02-09T08:40:16.491Z,0.5
2023-02-09T08:41:23.816Z,0.3
2023-02-09T08:42:16.678Z,0.6
2023-02-09T08:43:16.614Z,0.6
2023-02-09T08:44:25.610Z,0.5
2023-02-09T08:45:16.766Z,0.3
2023-02-09T08:46:16.941Z,0.3
2023-02-09T08:47:29.832Z,0.5
2023-02-09T08:48:16.866Z,0.8
2023-02-09T08:49:16.961Z,0.8
2023-02-09T08:50:27.474Z,0.9
2023-02-09T08:51:34.954Z,1
2023-02-09T08:52:58.381Z,1
2023-02-09T08:54:04.942Z,1
2023-02-09T08:55:19.991Z,0.9
2023-02-09T08:57:04.314Z,0.7
2023-02-09T08:57:50.013Z,0.6
2023-02-09T08:59:02.951Z,0.7
2023-02-09T08:59:53.063Z,0.7
2023-02-09T09:01:00.353Z,0.9
2023-02-09T09:01:53.222Z,0.8
2023-02-09T09:03:06.104Z,1
2023-02-09T09:03:53.453Z,1.1
2023-02-09T09:05:06.227Z,1.1
2023-02-09T09:05:53.430Z,1.2
2023-02-09T09:07:27.087Z,1.2
2023-02-09T09:07:53.545Z,1.3
2023-02-09T09:09:07.227Z,1.4
2023-02-09T09:09:53.728Z,1.5
2023-02-09T09:11:23.145Z,1.3
2023-02-09T09:11:55.556Z,1.5
2023-02-09T09:13:10.906Z,1.5
2023-02-09T09:13:53.905Z,1.6
2023-02-09T09:15:16.006Z,1.4
2023-02-09T09:15:54.044Z,1.5
2023-02-09T09:17:14.407Z,1.5
2023-02-09T09:17:54.159Z,1.6
2023-02-09T09:19:15.429Z,1.8
2023-02-09T09:19:54.371Z,2
2023-02-09T09:21:17.319Z,2.1
2023-02-09T09:21:58.896Z,2.2
2023-02-09T09:23:13.379Z,2.3
2023-02-09T09:23:54.512Z,2.5
2023-02-09T09:25:15.501Z,2.6
2023-02-09T09:25:54.621Z,2.6
2023-02-09T09:27:17.109Z,2.6
2023-02-09T09:27:54.810Z,2.3
2023-02-09T09:29:17.229Z,2.1
2023-02-09T09:29:54.859Z,2.3
2023-02-09T09:31:06.078Z,2.3
2023-02-09T09:31:56.400Z,2.3
2023-02-09T09:33:14.828Z,2.3
2023-02-09T09:33:55.066Z,2.4
2023-02-09T09:35:19.488Z,2.3
2023-02-09T09:35:55.179Z,2.6
2023-02-09T09:37:14.883Z,2.9
2023-02-09T09:37:55.292Z,3
2023-02-09T09:39:16.310Z,3.1
2023-02-09T09:39:55.423Z,3
2023-02-09T09:41:17.315Z,2.9
2023-02-09T09:41:59.827Z,2.7
2023-02-09T09:43:19.038Z,2.9
2023-02-09T09:43:55.626Z,3
2023-02-09T09:45:16.435Z,2.8
2023-02-09T09:45:55.779Z,3.1
2023-02-09T09:47:07.601Z,3.5
2023-02-09T09:47:55.935Z,4.1
2023-02-09T09:49:18.975Z,3.7
2023-02-09T09:49:57.521Z,3.6
2023-02-09T09:51:08.764Z,3.9
2023-02-09T09:52:00.191Z,4.2
2023-02-09T09:52:56.228Z,4
2023-02-09T09:54:16.355Z,4
2023-02-09T09:54:56.322Z,4
2023-02-09T09:55:56.360Z,3.7
2023-02-09T09:57:14.197Z,3.9
2023-02-09T09:57:56.387Z,4.3
2023-02-09T09:59:50.961Z,4.4
2023-02-09T10:00:54.261Z,4.7
2023-02-09T10:01:44.848Z,5.1
2023-02-09T10:02:20.176Z,5.2
2023-02-09T10:03:24.975Z,5.1
2023-02-09T10:04:20.288Z,5
2023-02-09T10:05:20.412Z,5.1
2023-02-09T10:06:30.438Z,5.1
2023-02-09T10:07:22.250Z,5
2023-02-09T10:08:20.463Z,5.6
2023-02-09T10:09:31.012Z,5.9
2023-02-09T10:10:20.600Z,6.3
2023-02-09T10:11:20.987Z,6.2
2023-02-09T10:12:21.259Z,6.7
2023-02-09T10:13:20.757Z,6.6
2023-02-09T10:14:22.871Z,6.4
2023-02-09T10:15:39.533Z,6.9
2023-02-09T10:16:21.001Z,7.3
2023-02-09T10:17:20.973Z,6.9
2023-02-09T10:18:49.569Z,6.4
2023-02-09T10:19:21.210Z,6.3
2023-02-09T10:20:21.142Z,6.2
2023-02-09T10:33:08.206Z,5.9
2023-02-09T10:34:09.318Z,6.2
2023-02-09T10:35:08.303Z,6.3
2023-02-09T10:36:08.337Z,5.9
2023-02-09T10:37:23.862Z,5.8
2023-02-09T10:38:08.467Z,5.5
2023-02-09T10:39:08.524Z,6
2023-02-09T10:40:24.620Z,5.5
2023-02-09T10:41:08.777Z,5.8
2023-02-09T10:42:08.700Z,6
2023-02-09T10:43:27.414Z,6
2023-02-09T10:44:15.111Z,6.3
2023-02-09T10:45:08.954Z,6.6
2023-02-09T10:46:09.370Z,6.6
2023-02-09T10:47:32.444Z,6.2
2023-02-09T10:48:09.125Z,6
2023-02-09T10:49:09.374Z,6.2
2023-02-09T10:50:09.331Z,6.5
2023-02-09T10:51:09.386Z,6.3
2023-02-09T10:52:09.388Z,6.3
2023-02-09T10:54:04.370Z,6.2
2023-02-09T10:54:20.595Z,6.3
2023-02-09T10:55:22.586Z,6.7
2023-02-09T10:56:26.954Z,7
2023-02-09T10:57:24.343Z,7.1
2023-02-09T10:58:09.741Z,7
2023-02-09T11:00:27.797Z,7.1
2023-02-09T11:01:09.982Z,6.9
2023-02-09T11:02:09.932Z,7.1
2023-02-09T11:03:09.997Z,7.3
2023-02-09T11:04:10.029Z,7.4
2023-02-09T11:05:10.135Z,7.3
2023-02-09T11:06:10.128Z,7.7
2023-02-09T11:07:20.914Z,8.3
2023-02-09T11:08:10.200Z,7.6
2023-02-09T11:09:10.253Z,6.9
2023-02-09T11:10:12.287Z,6.5
2023-02-09T11:11:10.359Z,6.4
2023-02-09T11:12:10.402Z,6.2
2023-02-09T11:13:18.933Z,6.3
2023-02-09T11:14:10.480Z,6.3
2023-02-09T11:15:10.589Z,6.3
2023-02-09T11:16:10.715Z,6.8
2023-02-09T11:17:10.700Z,7.3
2023-02-09T11:18:10.794Z,7.1
2023-02-09T11:19:20.052Z,7
2023-02-09T11:20:10.931Z,7.1
2023-02-09T11:21:10.972Z,6.8
2023-02-09T11:22:11.027Z,6.7
2023-02-09T11:23:11.062Z,7.2
2023-02-09T11:24:11.135Z,7.1
2023-02-09T11:25:11.224Z,6.9
2023-02-09T11:26:11.258Z,6.6
2023-02-09T11:27:11.372Z,6.7
2023-02-09T11:28:11.442Z,6.7
2023-02-09T11:29:11.503Z,6.7
2023-02-09T11:30:11.555Z,6.5
2023-02-09T11:31:18.324Z,6.3
2023-02-09T11:32:11.670Z,6.7
2023-02-09T11:33:11.717Z,7
2023-02-09T11:34:11.772Z,7
2023-02-09T11:35:11.893Z,6.8
2023-02-09T11:36:11.898Z,6.7
2023-02-09T11:37:18.748Z,6.9
2023-02-09T11:38:12.052Z,6.8
2023-02-09T11:39:13.645Z,6.7
2023-02-09T11:40:12.220Z,6.7
2023-02-09T11:41:14.631Z,6.7
2023-02-09T11:42:12.291Z,6.3
2023-02-09T11:43:28.910Z,6.5
2023-02-09T11:44:12.437Z,7
2023-02-09T11:45:22.521Z,7.3
2023-02-09T11:46:12.549Z,7.3
2023-02-09T11:47:23.491Z,7.3
2023-02-09T11:48:12.677Z,7.1
2023-02-09T11:49:31.706Z,7.5
2023-02-09T11:50:12.812Z,7.6
2023-02-09T11:51:31.948Z,7.3
2023-02-09T11:52:12.920Z,7.1
2023-02-09T11:53:30.027Z,6.8
2023-02-09T11:54:13.065Z,7.2
2023-02-09T11:55:30.863Z,8.3
2023-02-09T11:56:13.174Z,7.9
2023-02-09T11:57:31.602Z,7.9
2023-02-09T11:58:22.120Z,7.6
2023-02-09T11:59:31.687Z,7.6
2023-02-09T12:00:13.420Z,7.8
2023-02-09T12:01:20.886Z,7.5
2023-02-09T12:02:13.568Z,7.4
2023-02-09T12:03:30.506Z,7.2
2023-02-09T12:04:13.660Z,7.2
2023-02-09T12:05:30.039Z,7.2
2023-02-09T12:06:13.794Z,6.8
2023-02-09T12:07:13.817Z,7
2023-02-09T12:08:13.886Z,7
2023-02-09T12:09:13.922Z,7
2023-02-09T12:10:13.983Z,6.8
2023-02-09T12:11:14.011Z,6.9
2023-02-09T12:12:14.010Z,6.9
2023-02-09T12:13:14.043Z,7.2
2023-02-09T12:14:14.091Z,7
2023-02-09T12:15:14.134Z,6.8
2023-02-09T12:16:14.238Z,7.2
2023-02-09T12:17:32.806Z,7.2
2023-02-09T12:18:14.259Z,7.3
2023-02-09T12:19:17.731Z,7
2023-02-09T12:20:14.452Z,7
2023-02-09T12:21:14.435Z,7.3
2023-02-09T12:22:14.477Z,7.5
2023-02-09T12:23:14.534Z,7.6
2023-02-09T12:24:14.571Z,7.5
2023-02-09T12:25:18.901Z,7.2
2023-02-09T12:26:14.683Z,7.2
2023-02-09T12:27:14.717Z,7.3
2023-02-09T12:28:18.657Z,7.6
2023-02-09T12:29:14.839Z,7.6
2023-02-09T12:30:14.893Z,7.3
2023-02-09T12:31:19.747Z,7.3
2023-02-09T12:32:45.079Z,7.2
2023-02-09T12:35:11.130Z,7.6
2023-02-09T12:37:45.254Z,7.2
2023-02-09T12:40:20.608Z,7.1
2023-02-09T12:42:45.370Z,7.3
2023-02-09T12:45:11.140Z,7.3
2023-02-09T12:47:44.416Z,7.1
2023-02-09T12:49:20.941Z,6.9
2023-02-09T12:49:54.790Z,6.9
2023-02-09T12:50:54.845Z,7.4
2023-02-09T12:52:20.679Z,7.5
2023-02-09T12:52:54.984Z,7.3
2023-02-09T12:53:55.060Z,7
2023-02-09T12:55:19.491Z,6.9
2023-02-09T12:55:55.184Z,6.9
2023-02-09T12:56:55.237Z,6.8
2023-02-09T12:58:20.313Z,6.8
2023-02-09T12:58:55.550Z,7.1
2023-02-09T12:59:59.220Z,7.2
2023-02-09T13:01:19.387Z,7.2
2023-02-09T13:01:55.554Z,7.2
2023-02-09T13:02:55.613Z,7
2023-02-09T13:04:21.419Z,6.8
2023-02-09T13:04:55.725Z,6.8
2023-02-09T13:05:55.844Z,7
2023-02-09T13:07:21.165Z,7.3
2023-02-09T13:07:55.949Z,7.3
2023-02-09T13:08:55.997Z,7.3
2023-02-09T13:10:20.084Z,7.1
2023-02-09T13:10:56.146Z,7.2
2023-02-09T13:11:56.251Z,7.2
2023-02-09T13:13:24.479Z,7.6
2023-02-09T13:13:56.300Z,7.4
2023-02-09T13:14:56.384Z,7.3
2023-02-09T13:16:22.252Z,7.5
2023-02-09T13:16:56.553Z,7.5
2023-02-09T13:17:56.649Z,7.3
2023-02-09T13:19:22.345Z,7
2023-02-09T13:19:56.782Z,7.1
2023-02-09T13:21:01.793Z,7.4
2023-02-09T13:22:22.773Z,7.4
2023-02-09T13:22:56.900Z,7.5
2023-02-09T13:23:56.885Z,7.5
2023-02-09T13:25:22.452Z,7.8
2023-02-09T13:25:56.966Z,7.9
2023-02-09T13:26:57.031Z,7.7
2023-02-09T13:28:26.788Z,7.7
2023-02-09T13:28:57.101Z,7.6
2023-02-09T13:29:57.192Z,7.3
2023-02-09T13:31:27.141Z,7.3
2023-02-09T13:31:57.268Z,7.4
2023-02-09T13:32:57.259Z,8
2023-02-09T13:34:28.843Z,8.3
2023-02-09T13:34:57.335Z,8.2
2023-02-09T13:35:57.425Z,8
2023-02-09T13:37:28.318Z,7.6
2023-02-09T13:37:57.582Z,7.6
2023-02-09T13:38:57.616Z,7.7
2023-02-09T13:40:23.390Z,7.4
2023-02-09T13:40:57.671Z,7.4
2023-02-09T13:41:57.793Z,7.6
2023-02-09T13:43:25.664Z,7.8
2023-02-09T13:43:57.838Z,7.8
2023-02-09T13:44:57.929Z,7.4
2023-02-09T13:46:24.856Z,7.4
2023-02-09T13:46:58.015Z,7.6
2023-02-09T13:47:58.053Z,7.8
2023-02-09T13:50:17.225Z,7.5
2023-02-09T13:52:48.273Z,7.2
2023-02-09T13:55:27.205Z,7.1
2023-02-09T13:57:50.792Z,7.2
2023-02-09T14:00:28.460Z,7.4
2023-02-09T14:02:15.127Z,7.2
2023-02-09T14:03:11.402Z,7.5
2023-02-09T14:04:26.534Z,7.5
2023-02-09T14:05:11.447Z,7.6
2023-02-09T14:06:11.524Z,7.3
2023-02-09T14:07:25.808Z,7.5